sensor_id;sensor_type;location;lat;lon;timestamp;pressure;altitude;pressure_sealevel;temperature;humidity
22657;BME280;11495;55.610;12.100;2022-12-05T00:00:21;102028.19;;;3.02;0.00
22657;BME280;11495;55.610;12.100;2022-12-05T00:02:46;102023.81;;;3.01;0.00
22657;BME280;11495;55.610;12.100;2022-12-05T00:05:12;102028.19;;;3.02;0.00
22657;BME280;11495;55.610;12.100;2022-12-05T00:07:37;102029.63;;;2.98;0.00
22657;BME280;11495;55.610;12.100;2022-12-05T00:10:03;102036.09;;;2.97;0.00
22657;BME280;11495;55.610;12.100;2022-12-05T00:12:29;102035.25;;;2.97;0.00
22657;BME280;11495;55.610;12.100;2022-12-05T00:14:54;102027.28;;;2.95;0.00
22657;BME280;11495;55.610;12.100;2022-12-05T00:17:19;102018.91;;;2.90;0.00
22657;BME280;11495;55.610;12.100;2022-12-05T00:19:45;102025.34;;;2.89;0.00
22657;BME280;11495;55.610;12.100;2022-12-05T00:22:10;102025.34;;;2.89;0.00
22657;BME280;11495;55.610;12.100;2022-12-05T00:24:35;102022.47;;;2.91;0.00
22657;BME280;11495;55.610;12.100;2022-12-05T00:27:01;102025.81;;;2.93;0.00
22657;BME280;11495;55.610;12.100;2022-12-05T00:29:26;102019.16;;;2.95;0.00
22657;BME280;11495;55.610;12.100;2022-12-05T00:31:51;102021.50;;;2.98;0.00
22657;BME280;11495;55.610;12.100;2022-12-05T00:34:16;102025.88;;;2.99;0.00
22657;BME280;11495;55.610;12.100;2022-12-05T00:36:42;102029.63;;;2.98;0.00
22657;BME280;11495;55.610;12.100;2022-12-05T00:39:08;102030.09;;;3.02;0.00
22657;BME280;11495;55.610;12.100;2022-12-05T00:41:34;102030.72;;;3.04;0.00
22657;BME280;11495;55.610;12.100;2022-12-05T00:44:00;102033.00;;;3.00;0.00
22657;BME280;11495;55.610;12.100;2022-12-05T00:46:26;102028.84;;;3.04;0.00
22657;BME280;11495;55.610;12.100;2022-12-05T00:48:52;102026.13;;;3.04;0.00
22657;BME280;11495;55.610;12.100;2022-12-05T00:51:19;102023.19;;;3.06;0.00
22657;BME280;11495;55.610;12.100;2022-12-05T00:53:45;102034.06;;;3.06;0.00
22657;BME280;11495;55.610;12.100;2022-12-05T00:56:12;102028.84;;;3.04;0.00
22657;BME280;11495;55.610;12.100;2022-12-05T00:58:37;102028.00;;;3.04;0.00
22657;BME280;11495;55.610;12.100;2022-12-05T01:03:31;102029.31;;;3.08;0.00
22657;BME280;11495;55.610;12.100;2022-12-05T01:05:57;102024.91;;;3.07;0.00
22657;BME280;11495;55.610;12.100;2022-12-05T01:08:22;102028.19;;;3.02;0.00
22657;BME280;11495;55.610;12.100;2022-12-05T01:10:55;102024.06;;;3.06;0.00
22657;BME280;11495;55.610;12.100;2022-12-05T01:13:21;102021.34;;;3.06;0.00
22657;BME280;11495;55.610;12.100;2022-12-05T01:15:46;102032.47;;;3.12;0.00
22657;BME280;11495;55.610;12.100;2022-12-05T01:18:12;102025.97;;;3.13;0.00
22657;BME280;11495;55.610;12.100;2022-12-05T01:20:38;102027.03;;;3.12;0.00
22657;BME280;11495;55.610;12.100;2022-12-05T01:23:07;102027.22;;;3.10;0.00
22657;BME280;11495;55.610;12.100;2022-12-05T01:25:33;102021.22;;;3.15;0.00
22657;BME280;11495;55.610;12.100;2022-12-05T01:27:58;102029.53;;;3.13;0.00
22657;BME280;11495;55.610;12.100;2022-12-05T01:30:23;102026.19;;;3.11;0.00
22657;BME280;11495;55.610;12.100;2022-12-05T01:32:49;102026.81;;;3.13;0.00
22657;BME280;11495;55.610;12.100;2022-12-05T01:35:14;102027.03;;;3.12;0.00
22657;BME280;11495;55.610;12.100;2022-12-05T01:37:39;102027.03;;;3.12;0.00
22657;BME280;11495;55.610;12.100;2022-12-05T01:40:05;102031.22;;;3.14;0.00
22657;BME280;11495;55.610;12.100;2022-12-05T01:42:32;102018.03;;;3.11;0.00
22657;BME280;11495;55.610;12.100;2022-12-05T01:44:58;102037.53;;;3.15;0.00
22657;BME280;11495;55.610;12.100;2022-12-05T01:47:24;102024.94;;;3.14;0.00
22657;BME280;11495;55.610;12.100;2022-12-05T01:49:52;102028.50;;;3.14;0.00
22657;BME280;11495;55.610;12.100;2022-12-05T01:52:20;102024.09;;;3.13;0.00
22657;BME280;11495;55.610;12.100;2022-12-05T01:54:47;102025.59;;;3.16;0.00
22657;BME280;11495;55.610;12.100;2022-12-05T01:57:14;102035.81;;;3.14;0.00
22657;BME280;11495;55.610;12.100;2022-12-05T01:59:41;102021.22;;;3.15;0.00
22657;BME280;11495;55.610;12.100;2022-12-05T02:02:08;102032.09;;;3.15;0.00
22657;BME280;11495;55.610;12.100;2022-12-05T02:04:34;102029.16;;;3.16;0.00
22657;BME280;11495;55.610;12.100;2022-12-05T02:07:01;102019.50;;;3.14;0.00
22657;BME280;11495;55.610;12.100;2022-12-05T02:09:27;102021.66;;;3.18;0.00
22657;BME280;11495;55.610;12.100;2022-12-05T02:11:53;102019.75;;;3.19;0.00
22657;BME280;11495;55.610;12.100;2022-12-05T02:16:57;102010.78;;;3.18;0.00
22657;BME280;11495;55.610;12.100;2022-12-05T02:30:09;102010.38;;;3.21;0.00
22657;BME280;11495;55.610;12.100;2022-12-05T02:32:54;102015.63;;;3.23;0.00
22657;BME280;11495;55.610;12.100;2022-12-05T02:38:01;102003.72;;;3.24;0.00
22657;BME280;11495;55.610;12.100;2022-12-05T02:40:40;102014.19;;;3.27;0.00
22657;BME280;11495;55.610;12.100;2022-12-05T02:43:16;102011.22;;;3.22;0.00
22657;BME280;11495;55.610;12.100;2022-12-05T02:45:42;102005.59;;;3.23;0.00
22657;BME280;11495;55.610;12.100;2022-12-05T02:48:10;102011.22;;;3.22;0.00
22657;BME280;11495;55.610;12.100;2022-12-05T02:50:37;102005.59;;;3.23;0.00
22657;BME280;11495;55.610;12.100;2022-12-05T02:53:03;101999.50;;;3.21;0.00
22657;BME280;11495;55.610;12.100;2022-12-05T02:55:30;102008.31;;;3.23;0.00
22657;BME280;11495;55.610;12.100;2022-12-05T02:57:57;101997.25;;;3.25;0.00
22657;BME280;11495;55.610;12.100;2022-12-05T03:00:24;102007.28;;;3.24;0.00
22657;BME280;11495;55.610;12.100;2022-12-05T03:02:51;102001.22;;;3.29;0.00
22657;BME280;11495;55.610;12.100;2022-12-05T03:05:20;101994.56;;;3.31;0.00
22657;BME280;11495;55.610;12.100;2022-12-05T03:07:48;102004.97;;;3.28;0.00
22657;BME280;11495;55.610;12.100;2022-12-05T03:10:16;101993.69;;;3.31;0.00
22657;BME280;11495;55.610;12.100;2022-12-05T03:12:43;101993.06;;;3.29;0.00
22657;BME280;11495;55.610;12.100;2022-12-05T03:15:16;101988.47;;;3.29;0.00
22657;BME280;11495;55.610;12.100;2022-12-05T03:20:31;101989.78;;;3.33;0.00
22657;BME280;11495;55.610;12.100;2022-12-05T03:23:09;101989.97;;;3.32;0.00
22657;BME280;11495;55.610;12.100;2022-12-05T03:25:44;101991.66;;;3.33;0.00
22657;BME280;11495;55.610;12.100;2022-12-05T03:28:32;101984.91;;;3.29;0.00
22657;BME280;11495;55.610;12.100;2022-12-05T03:31:01;101993.69;;;3.31;0.00
22657;BME280;11495;55.610;12.100;2022-12-05T03:33:33;101979.28;;;3.30;0.00
22657;BME280;11495;55.610;12.100;2022-12-05T03:36:02;101971.94;;;3.31;0.00
22657;BME280;11495;55.610;12.100;2022-12-05T03:41:07;101962.31;;;3.28;0.00
22657;BME280;11495;55.610;12.100;2022-12-05T03:43:37;101949.56;;;3.29;0.00
22657;BME280;11495;55.610;12.100;2022-12-05T03:51:19;101951.25;;;3.30;0.00
22657;BME280;11495;55.610;12.100;2022-12-05T03:53:48;101946.66;;;3.30;0.00
22657;BME280;11495;55.610;12.100;2022-12-05T03:56:17;101947.91;;;3.28;0.00
22657;BME280;11495;55.610;12.100;2022-12-05T04:01:36;101941.03;;;3.32;0.00
22657;BME280;11495;55.610;12.100;2022-12-05T04:04:07;101940.62;;;3.35;0.00
22657;BME280;11495;55.610;12.100;2022-12-05T04:06:35;101939.78;;;3.34;0.00
22657;BME280;11495;55.610;12.100;2022-12-05T04:09:06;101933.50;;;3.34;0.00
22657;BME280;11495;55.610;12.100;2022-12-05T04:11:34;101942.31;;;3.36;0.00
22657;BME280;11495;55.610;12.100;2022-12-05T04:14:09;101934.16;;;3.36;0.00
22657;BME280;11495;55.610;12.100;2022-12-05T04:16:42;101939.38;;;3.37;0.00
22657;BME280;11495;55.610;12.100;2022-12-05T04:19:50;101930.19;;;3.38;0.00
22657;BME280;11495;55.610;12.100;2022-12-05T04:22:32;101925.56;;;3.39;0.00
22657;BME280;11495;55.610;12.100;2022-12-05T04:24:58;101919.28;;;3.38;0.00
22657;BME280;11495;55.610;12.100;2022-12-05T04:27:47;101916.59;;;3.38;0.00
22657;BME280;11495;55.610;12.100;2022-12-05T04:30:31;101919.75;;;3.42;0.00
22657;BME280;11495;55.610;12.100;2022-12-05T04:33:09;101923.75;;;3.46;0.00
22657;BME280;11495;55.610;12.100;2022-12-05T04:38:07;101919.59;;;3.50;0.00
22657;BME280;11495;55.610;12.100;2022-12-05T04:40:38;101914.34;;;3.49;0.00
22657;BME280;11495;55.610;12.100;2022-12-05T04:43:05;101925.03;;;3.50;0.00
22657;BME280;11495;55.610;12.100;2022-12-05T04:45:32;101923.16;;;3.51;0.00
22657;BME280;11495;55.610;12.100;2022-12-05T04:48:00;101916.66;;;3.52;0.00
22657;BME280;11495;55.610;12.100;2022-12-05T04:50:29;101924.41;;;3.48;0.00
22657;BME280;11495;55.610;12.100;2022-12-05T04:52:55;101924.81;;;3.52;0.00
22657;BME280;11495;55.610;12.100;2022-12-05T04:55:23;101920.00;;;3.54;0.00
22657;BME280;11495;55.610;12.100;2022-12-05T05:06:00;101922.31;;;3.50;0.00
22657;BME280;11495;55.610;12.100;2022-12-05T05:08:27;101923.16;;;3.51;0.00
22657;BME280;11495;55.610;12.100;2022-12-05T05:13:21;101920.84;;;3.54;0.00
22657;BME280;11495;55.610;12.100;2022-12-05T05:15:46;101909.34;;;3.52;0.00
22657;BME280;11495;55.610;12.100;2022-12-05T05:18:12;101916.25;;;3.55;0.00
22657;BME280;11495;55.610;12.100;2022-12-05T05:20:37;101912.06;;;3.52;0.00
22657;BME280;11495;55.610;12.100;2022-12-05T05:23:03;101909.59;;;3.57;0.00
22657;BME280;11495;55.610;12.100;2022-12-05T05:25:28;101909.59;;;3.57;0.00
22657;BME280;11495;55.610;12.100;2022-12-05T05:27:54;101905.81;;;3.58;0.00
22657;BME280;11495;55.610;12.100;2022-12-05T05:30:20;101904.16;;;3.57;0.00
22657;BME280;11495;55.610;12.100;2022-12-05T05:32:46;101908.09;;;3.55;0.00
22657;BME280;11495;55.610;12.100;2022-12-05T05:35:11;101898.03;;;3.55;0.00
22657;BME280;11495;55.610;12.100;2022-12-05T05:37:37;101901.44;;;3.57;0.00
22657;BME280;11495;55.610;12.100;2022-12-05T05:40:04;101896.00;;;3.57;0.00
22657;BME280;11495;55.610;12.100;2022-12-05T05:42:29;101888.88;;;3.56;0.00
22657;BME280;11495;55.610;12.100;2022-12-05T05:44:55;101901.44;;;3.57;0.00
22657;BME280;11495;55.610;12.100;2022-12-05T05:47:20;101895.56;;;3.60;0.00
22657;BME280;11495;55.610;12.100;2022-12-05T05:49:45;101887.41;;;3.60;0.00
22657;BME280;11495;55.610;12.100;2022-12-05T05:52:10;101896.19;;;3.56;0.00
22657;BME280;11495;55.610;12.100;2022-12-05T05:54:36;101891.59;;;3.56;0.00
22657;BME280;11495;55.610;12.100;2022-12-05T05:57:01;101902.25;;;3.58;0.00
22657;BME280;11495;55.610;12.100;2022-12-05T05:59:26;101902.69;;;3.61;0.00
22657;BME280;11495;55.610;12.100;2022-12-05T06:01:52;101891.81;;;3.61;0.00
22657;BME280;11495;55.610;12.100;2022-12-05T06:04:17;101885.75;;;3.59;0.00
22657;BME280;11495;55.610;12.100;2022-12-05T06:06:42;101893.91;;;3.59;0.00
22657;BME280;11495;55.610;12.100;2022-12-05T06:09:07;101896.38;;;3.54;0.00
22657;BME280;11495;55.610;12.100;2022-12-05T06:11:33;101895.78;;;3.59;0.00
22657;BME280;11495;55.610;12.100;2022-12-05T06:13:59;101898.50;;;3.59;0.00
22657;BME280;11495;55.610;12.100;2022-12-05T06:16:27;101889.09;;;3.61;0.00
22657;BME280;11495;55.610;12.100;2022-12-05T06:18:53;101899.34;;;3.59;0.00
22657;BME280;11495;55.610;12.100;2022-12-05T06:21:18;101899.13;;;3.61;0.00
22657;BME280;11495;55.610;12.100;2022-12-05T06:23:44;101897.03;;;3.63;0.00
22657;BME280;11495;55.610;12.100;2022-12-05T06:26:10;101886.16;;;3.63;0.00
22657;BME280;11495;55.610;12.100;2022-12-05T06:28:36;101890.13;;;3.60;0.00
22657;BME280;11495;55.610;12.100;2022-12-05T06:31:14;101891.81;;;3.61;0.00
22657;BME280;11495;55.610;12.100;2022-12-05T06:33:39;101890.75;;;3.62;0.00
22657;BME280;11495;55.610;12.100;2022-12-05T06:36:09;101891.59;;;3.63;0.00
22657;BME280;11495;55.610;12.100;2022-12-05T06:38:34;101884.47;;;3.62;0.00
22657;BME280;11495;55.610;12.100;2022-12-05T06:41:03;101888.69;;;3.64;0.00
22657;BME280;11495;55.610;12.100;2022-12-05T06:43:28;101889.72;;;3.63;0.00
22657;BME280;11495;55.610;12.100;2022-12-05T06:45:53;101884.28;;;3.63;0.00
22657;BME280;11495;55.610;12.100;2022-12-05T06:48:18;101892.44;;;3.63;0.00
22657;BME280;11495;55.610;12.100;2022-12-05T06:50:50;101888.03;;;3.62;0.00
22657;BME280;11495;55.610;12.100;2022-12-05T06:53:16;101886.59;;;3.66;0.00
22657;BME280;11495;55.610;12.100;2022-12-05T06:55:41;101888.50;;;3.66;0.00
22657;BME280;11495;55.610;12.100;2022-12-05T06:58:07;101895.59;;;3.67;0.00
22657;BME280;11495;55.610;12.100;2022-12-05T07:00:32;101890.56;;;3.64;0.00
22657;BME280;11495;55.610;12.100;2022-12-05T07:03:16;101885.97;;;3.64;0.00
22657;BME280;11495;55.610;12.100;2022-12-05T07:05:41;101891.41;;;3.64;0.00
22657;BME280;11495;55.610;12.100;2022-12-05T07:08:06;101898.94;;;3.69;0.00
22657;BME280;11495;55.610;12.100;2022-12-05T07:10:31;101894.56;;;3.68;0.00
22657;BME280;11495;55.610;12.100;2022-12-05T07:12:57;101896.03;;;3.71;0.00
22657;BME280;11495;55.610;12.100;2022-12-05T07:15:22;101893.09;;;3.72;0.00
22657;BME280;11495;55.610;12.100;2022-12-05T07:17:47;101901.66;;;3.69;0.00
22657;BME280;11495;55.610;12.100;2022-12-05T07:20:13;101906.28;;;3.69;0.00
22657;BME280;11495;55.610;12.100;2022-12-05T07:22:41;101903.34;;;3.70;0.00
22657;BME280;11495;55.610;12.100;2022-12-05T07:25:07;101896.44;;;3.67;0.00
22657;BME280;11495;55.610;12.100;2022-12-05T07:27:32;101902.94;;;3.66;0.00
22657;BME280;11495;55.610;12.100;2022-12-05T07:29:58;101904.59;;;3.67;0.00
22657;BME280;11495;55.610;12.100;2022-12-05T07:32:23;101895.41;;;3.69;0.00
22657;BME280;11495;55.610;12.100;2022-12-05T07:34:48;101905.22;;;3.70;0.00
22657;BME280;11495;55.610;12.100;2022-12-05T07:37:14;101902.31;;;3.71;0.00
22657;BME280;11495;55.610;12.100;2022-12-05T08:56:55;101889.88;;;3.55;0.00
22657;BME280;11495;55.610;12.100;2022-12-05T08:59:21;101889.88;;;3.55;0.00
22657;BME280;11495;55.610;12.100;2022-12-05T09:01:48;102072.31;;;3.82;0.00
22657;BME280;11495;55.610;12.100;2022-12-05T09:04:13;102072.06;;;3.77;0.00
22657;BME280;11495;55.610;12.100;2022-12-05T09:06:39;102072.69;;;3.79;0.00
22657;BME280;11495;55.610;12.100;2022-12-05T09:09:05;102064.09;;;3.75;0.00
22657;BME280;11495;55.610;12.100;2022-12-05T09:11:32;102064.31;;;3.80;0.00
22657;BME280;11495;55.610;12.100;2022-12-05T09:13:58;102064.53;;;3.79;0.00
22657;BME280;11495;55.610;12.100;2022-12-05T09:16:25;102053.06;;;3.83;0.00
22657;BME280;11495;55.610;12.100;2022-12-05T09:18:53;102050.97;;;3.85;0.00
22657;BME280;11495;55.610;12.100;2022-12-05T09:21:23;102053.91;;;3.84;0.00
22657;BME280;11495;55.610;12.100;2022-12-05T09:23:49;102058.94;;;3.87;0.00
22657;BME280;11495;55.610;12.100;2022-12-05T09:26:15;102047.84;;;3.88;0.00
22657;BME280;11495;55.610;12.100;2022-12-05T09:28:42;102043.28;;;3.89;0.00
22657;BME280;11495;55.610;12.100;2022-12-05T09:31:09;102043.06;;;3.90;0.00
22657;BME280;11495;55.610;12.100;2022-12-05T09:33:35;102036.38;;;3.93;0.00
22657;BME280;11495;55.610;12.100;2022-12-05T09:36:05;102027.78;;;3.96;0.00
22657;BME280;11495;55.610;12.100;2022-12-05T09:38:31;102039.72;;;3.95;0.00
22657;BME280;11495;55.610;12.100;2022-12-05T09:43:48;102030.97;;;4.00;0.00
22657;BME280;11495;55.610;12.100;2022-12-05T09:48:44;102033.31;;;4.09;0.00
22657;BME280;11495;55.610;12.100;2022-12-05T09:51:09;102031.00;;;4.06;0.00
22657;BME280;11495;55.610;12.100;2022-12-05T09:53:37;102040.59;;;4.02;0.00
22657;BME280;11495;55.610;12.100;2022-12-05T10:03:48;102012.13;;;4.05;0.00
22657;BME280;11495;55.610;12.100;2022-12-05T10:06:35;102024.69;;;3.99;0.00
22657;BME280;11495;55.610;12.100;2022-12-05T10:11:50;102023.84;;;4.05;0.00
22657;BME280;11495;55.610;12.100;2022-12-05T10:16:55;102014.25;;;4.09;0.00
22657;BME280;11495;55.610;12.100;2022-12-05T10:19:43;102018.84;;;4.09;0.00
22657;BME280;11495;55.610;12.100;2022-12-05T10:24:37;102011.47;;;3.96;0.00
22657;BME280;11495;55.610;12.100;2022-12-05T10:27:05;102004.97;;;3.97;0.00
22657;BME280;11495;55.610;12.100;2022-12-05T10:30:16;102005.38;;;3.94;0.00
22657;BME280;11495;55.610;12.100;2022-12-05T10:32:22;101995.78;;;3.98;0.00
22657;BME280;11495;55.610;12.100;2022-12-05T10:34:49;101992.56;;;3.88;0.00
22657;BME280;11495;55.610;12.100;2022-12-05T10:37:18;101990.06;;;3.86;0.00
22657;BME280;11495;55.610;12.100;2022-12-05T10:39:45;101978.53;;;3.84;0.00
22657;BME280;11495;55.610;12.100;2022-12-05T10:42:14;101971.25;;;3.91;0.00
22657;BME280;11495;55.610;12.100;2022-12-05T10:44:40;101962.25;;;3.91;0.00
22657;BME280;11495;55.610;12.100;2022-12-05T10:47:06;101953.69;;;3.94;0.00
22657;BME280;11495;55.610;12.100;2022-12-05T10:49:32;101944.84;;;3.85;0.00
22657;BME280;11495;55.610;12.100;2022-12-05T10:51:58;101957.19;;;3.81;0.00
22657;BME280;11495;55.610;12.100;2022-12-05T10:54:25;101940.25;;;3.86;0.00
22657;BME280;11495;55.610;12.100;2022-12-05T10:56:53;101935.84;;;3.85;0.00
22657;BME280;11495;55.610;12.100;2022-12-05T10:59:20;101925.59;;;3.87;0.00
22657;BME280;11495;55.610;12.100;2022-12-05T11:01:55;101926.47;;;3.94;0.00
22657;BME280;11495;55.610;12.100;2022-12-05T11:04:23;101909.28;;;3.93;0.00
22657;BME280;11495;55.610;12.100;2022-12-05T11:06:53;101898.44;;;4.00;0.00
22657;BME280;11495;55.610;12.100;2022-12-05T11:09:20;101892.97;;;3.93;0.00
22657;BME280;11495;55.610;12.100;2022-12-05T11:12:47;101876.19;;;3.83;0.00
22657;BME280;11495;55.610;12.100;2022-12-05T11:14:52;101878.47;;;3.80;0.00
22657;BME280;11495;55.610;12.100;2022-12-05T11:17:25;101872.22;;;3.86;0.00
22657;BME280;11495;55.610;12.100;2022-12-05T11:19:51;101865.47;;;3.69;0.00
22657;BME280;11495;55.610;12.100;2022-12-05T11:22:16;101867.75;;;3.58;0.00
22657;BME280;11495;55.610;12.100;2022-12-05T11:24:42;101861.00;;;3.54;0.00
22657;BME280;11495;55.610;12.100;2022-12-05T11:29:42;101837.19;;;3.56;0.00
22657;BME280;11495;55.610;12.100;2022-12-05T11:32:18;101833.66;;;3.56;0.00
22657;BME280;11495;55.610;12.100;2022-12-05T11:37:23;101817.50;;;3.54;0.00
22657;BME280;11495;55.610;12.100;2022-12-05T11:39:49;101808.31;;;3.49;0.00
22657;BME280;11495;55.610;12.100;2022-12-05T11:45:15;101791.53;;;3.45;0.00
22657;BME280;11495;55.610;12.100;2022-12-05T11:48:07;101789.28;;;3.49;0.00
22657;BME280;11495;55.610;12.100;2022-12-05T11:58:03;101754.47;;;3.31;0.00
22657;BME280;11495;55.610;12.100;2022-12-05T12:00:34;101755.75;;;3.35;0.00
22657;BME280;11495;55.610;12.100;2022-12-05T12:03:18;101738.81;;;3.33;0.00
22657;BME280;11495;55.610;12.100;2022-12-05T12:08:28;101723.31;;;3.27;0.00
22657;BME280;11495;55.610;12.100;2022-12-05T12:11:00;101718.94;;;3.32;0.00
22657;BME280;11495;55.610;12.100;2022-12-05T12:13:32;101713.31;;;3.34;0.00
22657;BME280;11495;55.610;12.100;2022-12-05T12:16:05;101706.16;;;3.26;0.00
22657;BME280;11495;55.610;12.100;2022-12-05T12:23:54;101687.16;;;3.33;0.00
22657;BME280;11495;55.610;12.100;2022-12-05T12:32:37;101661.63;;;3.27;0.00
22657;BME280;11495;55.610;12.100;2022-12-05T12:34:30;101652.62;;;3.20;0.00
22657;BME280;11495;55.610;12.100;2022-12-05T12:47:42;101628.81;;;3.16;0.00
22657;BME280;11495;55.610;12.100;2022-12-05T13:00:43;101596.37;;;3.21;0.00
22657;BME280;11495;55.610;12.100;2022-12-05T13:03:21;101592.19;;;3.12;0.00
22657;BME280;11495;55.610;12.100;2022-12-05T13:05:49;101583.81;;;3.13;0.00
22657;BME280;11495;55.610;12.100;2022-12-05T13:10:51;101577.97;;;3.09;0.00
22657;BME280;11495;55.610;12.100;2022-12-05T13:13:37;101581.56;;;3.17;0.00
22657;BME280;11495;55.610;12.100;2022-12-05T13:16:04;101577.78;;;3.18;0.00
22657;BME280;11495;55.610;12.100;2022-12-05T13:18:31;101574.44;;;3.16;0.00
22657;BME280;11495;55.610;12.100;2022-12-05T13:20:58;101570.66;;;3.10;0.00
22657;BME280;11495;55.610;12.100;2022-12-05T13:23:26;101575.06;;;3.11;0.00
22657;BME280;11495;55.610;12.100;2022-12-05T13:25:53;101570.25;;;3.13;0.00
22657;BME280;11495;55.610;12.100;2022-12-05T13:30:54;101562.09;;;3.00;0.00
22657;BME280;11495;55.610;12.100;2022-12-05T13:33:30;101556.66;;;2.93;0.00
22657;BME280;11495;55.610;12.100;2022-12-05T13:36:01;101552.88;;;2.88;0.00
22657;BME280;11495;55.610;12.100;2022-12-05T13:38:46;101554.12;;;2.85;0.00
22657;BME280;11495;55.610;12.100;2022-12-05T13:41:37;101545.34;;;2.83;0.00
22657;BME280;11495;55.610;12.100;2022-12-05T13:44:32;101550.38;;;2.86;0.00
22657;BME280;11495;55.610;12.100;2022-12-05T13:46:58;101539.72;;;2.85;0.00
22657;BME280;11495;55.610;12.100;2022-12-05T13:49:28;101542.84;;;2.88;0.00
22657;BME280;11495;55.610;12.100;2022-12-05T13:52:02;101535.72;;;2.87;0.00
22657;BME280;11495;55.610;12.100;2022-12-05T13:54:28;101537.41;;;2.81;0.00
22657;BME280;11495;55.610;12.100;2022-12-05T13:56:56;101531.53;;;2.78;0.00
22657;BME280;11495;55.610;12.100;2022-12-05T14:04:54;101522.78;;;2.83;0.00
22657;BME280;11495;55.610;12.100;2022-12-05T14:07:35;101518.59;;;2.87;0.00
22657;BME280;11495;55.610;12.100;2022-12-05T14:10:01;101511.28;;;2.87;0.00
22657;BME280;11495;55.610;12.100;2022-12-05T14:12:29;101514.44;;;2.84;0.00
22657;BME280;11495;55.610;12.100;2022-12-05T14:17:32;101518.59;;;2.80;0.00
22657;BME280;11495;55.610;12.100;2022-12-05T14:28:09;101502.28;;;2.80;0.00
22657;BME280;11495;55.610;12.100;2022-12-05T14:33:30;101501.66;;;2.78;0.00
22657;BME280;11495;55.610;12.100;2022-12-05T14:35:56;101491.84;;;2.77;0.00
22657;BME280;11495;55.610;12.100;2022-12-05T14:38:29;101480.56;;;2.80;0.00
22657;BME280;11495;55.610;12.100;2022-12-05T14:40:55;101483.50;;;2.78;0.00
22657;BME280;11495;55.610;12.100;2022-12-05T14:43:25;101482.66;;;2.78;0.00
22657;BME280;11495;55.610;12.100;2022-12-05T14:45:59;101481.41;;;2.80;0.00
22657;BME280;11495;55.610;12.100;2022-12-05T14:48:33;101471.56;;;2.73;0.00
22657;BME280;11495;55.610;12.100;2022-12-05T14:51:00;101485.16;;;2.73;0.00
22657;BME280;11495;55.610;12.100;2022-12-05T14:53:29;101473.87;;;2.76;0.00
22657;BME280;11495;55.610;12.100;2022-12-05T15:00:59;101463.84;;;2.70;0.00
22657;BME280;11495;55.610;12.100;2022-12-05T15:03:30;101460.91;;;2.65;0.00
22657;BME280;11495;55.610;12.100;2022-12-05T15:05:57;101451.09;;;2.64;0.00
22657;BME280;11495;55.610;12.100;2022-12-05T15:08:22;101450.47;;;2.62;0.00
22657;BME280;11495;55.610;12.100;2022-12-05T15:10:47;101451.09;;;2.64;0.00
22657;BME280;11495;55.610;12.100;2022-12-05T15:13:15;101458.00;;;2.66;0.00
22657;BME280;11495;55.610;12.100;2022-12-05T15:15:43;101463.44;;;2.60;0.00
22657;BME280;11495;55.610;12.100;2022-12-05T15:26:20;101448.38;;;2.64;0.00
22657;BME280;11495;55.610;12.100;2022-12-05T15:29:00;101444.22;;;2.61;0.00
22657;BME280;11495;55.610;12.100;2022-12-05T15:31:27;101446.72;;;2.63;0.00
22657;BME280;11495;55.610;12.100;2022-12-05T15:33:53;101440.87;;;2.59;0.00
22657;BME280;11495;55.610;12.100;2022-12-05T15:36:22;101438.38;;;2.58;0.00
22657;BME280;11495;55.610;12.100;2022-12-05T15:38:50;101451.94;;;2.58;0.00
22657;BME280;11495;55.610;12.100;2022-12-05T15:41:17;101448.41;;;2.57;0.00
22657;BME280;11495;55.610;12.100;2022-12-05T15:43:43;101448.41;;;2.57;0.00
22657;BME280;11495;55.610;12.100;2022-12-05T15:46:23;101455.47;;;2.51;0.00
22657;BME280;11495;55.610;12.100;2022-12-05T15:48:56;101441.91;;;2.51;0.00
22657;BME280;11495;55.610;12.100;2022-12-05T15:51:32;101450.87;;;2.52;0.00
22657;BME280;11495;55.610;12.100;2022-12-05T15:54:03;101454.44;;;2.52;0.00
22657;BME280;11495;55.610;12.100;2022-12-05T15:58:59;101450.25;;;2.50;0.00
22657;BME280;11495;55.610;12.100;2022-12-05T16:01:27;101444.41;;;2.53;0.00
22657;BME280;11495;55.610;12.100;2022-12-05T16:03:58;101433.53;;;2.46;0.00
22657;BME280;11495;55.610;12.100;2022-12-05T16:06:36;101436.03;;;2.48;0.00
22657;BME280;11495;55.610;12.100;2022-12-05T16:09:07;101430.81;;;2.46;0.00
22657;BME280;11495;55.610;12.100;2022-12-05T16:11:34;101427.72;;;2.49;0.00
22657;BME280;11495;55.610;12.100;2022-12-05T16:14:03;101438.75;;;2.48;0.00
22657;BME280;11495;55.610;12.100;2022-12-05T16:16:31;101432.31;;;2.49;0.00
22657;BME280;11495;55.610;12.100;2022-12-05T16:18:57;101421.00;;;2.45;0.00
22657;BME280;11495;55.610;12.100;2022-12-05T16:21:29;101426.66;;;2.44;0.00
22657;BME280;11495;55.610;12.100;2022-12-05T16:24:04;101421.44;;;2.49;0.00
22657;BME280;11495;55.610;12.100;2022-12-05T16:26:35;101421.44;;;2.42;0.00
22657;BME280;11495;55.610;12.100;2022-12-05T16:29:01;101423.31;;;2.42;0.00
22657;BME280;11495;55.610;12.100;2022-12-05T16:31:28;101425.19;;;2.41;0.00
22657;BME280;11495;55.610;12.100;2022-12-05T16:34:00;101430.41;;;2.43;0.00
22657;BME280;11495;55.610;12.100;2022-12-05T16:36:26;101423.31;;;2.42;0.00
22657;BME280;11495;55.610;12.100;2022-12-05T16:39:02;101414.13;;;2.43;0.00
22657;BME280;11495;55.610;12.100;2022-12-05T16:41:35;101422.66;;;2.40;0.00
22657;BME280;11495;55.610;12.100;2022-12-05T16:44:01;101417.06;;;2.41;0.00
22657;BME280;11495;55.610;12.100;2022-12-05T16:49:13;101426.66;;;2.44;0.00
22657;BME280;11495;55.610;12.100;2022-12-05T16:51:39;101419.56;;;2.43;0.00
22657;BME280;11495;55.610;12.100;2022-12-05T16:54:06;101433.13;;;2.43;0.00
22657;BME280;11495;55.610;12.100;2022-12-05T16:56:31;101421.66;;;2.41;0.00
22657;BME280;11495;55.610;12.100;2022-12-05T16:59:01;101425.19;;;2.41;0.00
22657;BME280;11495;55.610;12.100;2022-12-05T17:01:26;101425.81;;;2.43;0.00
22657;BME280;11495;55.610;12.100;2022-12-05T17:03:52;101421.44;;;2.42;0.00